createdAt,value
2023-05-19T00:00:09.303Z,5.82
2023-05-19T00:02:39.605Z,6.00
2023-05-19T00:05:07.050Z,6.32
2023-05-19T00:07:35.272Z,6.68
2023-05-19T00:10:02.213Z,6.32
2023-05-19T00:12:29.028Z,7.05
2023-05-19T00:14:55.973Z,7.18
2023-05-19T00:17:23.487Z,7.07
2023-05-19T00:19:50.243Z,6.72
2023-05-19T00:22:16.861Z,6.25
2023-05-19T00:24:43.627Z,5.75
2023-05-19T00:27:10.283Z,6.63
2023-05-19T00:29:37.071Z,5.78
2023-05-19T00:32:03.940Z,5.90
2023-05-19T00:34:30.700Z,5.80
2023-05-19T00:36:57.372Z,5.80
2023-05-19T00:39:24.283Z,6.05
2023-05-19T00:41:51.586Z,6.00
2023-05-19T00:44:18.203Z,6.60
2023-05-19T00:46:45.134Z,5.55
2023-05-19T00:49:11.770Z,6.07
2023-05-19T00:51:38.719Z,6.00
2023-05-19T00:54:05.709Z,6.32
2023-05-19T00:56:32.858Z,6.00
2023-05-19T00:58:59.666Z,6.15
2023-05-19T01:01:27.192Z,6.80
2023-05-19T01:06:23.351Z,5.70
2023-05-19T01:08:51.605Z,5.70
2023-05-19T01:11:18.508Z,5.72
2023-05-19T01:13:45.694Z,6.93
2023-05-19T01:16:43.107Z,6.22
2023-05-19T01:19:21.125Z,5.68
2023-05-19T01:22:23.048Z,6.43
2023-05-19T01:25:29.239Z,6.57
2023-05-19T01:28:17.640Z,5.60
2023-05-19T01:30:48.724Z,5.72
2023-05-19T01:33:16.664Z,6.00
2023-05-19T01:35:44.204Z,6.05
2023-05-19T01:38:13.244Z,5.82
2023-05-19T01:40:41.585Z,6.18
2023-05-19T01:43:10.806Z,5.82
2023-05-19T01:45:38.446Z,6.15
2023-05-19T01:48:07.226Z,6.00
2023-05-19T01:50:35.873Z,6.15
2023-05-19T01:53:02.883Z,6.13
2023-05-19T01:55:29.862Z,5.95
2023-05-19T01:58:22.900Z,5.50
2023-05-19T02:00:56.814Z,6.50
2023-05-19T02:03:54.578Z,6.55
2023-05-19T02:06:33.446Z,6.10
2023-05-19T02:09:13.757Z,6.10
2023-05-19T02:11:47.530Z,6.50
2023-05-19T02:14:20.621Z,6.70
2023-05-19T02:16:48.990Z,6.63
2023-05-19T02:19:32.093Z,6.10
2023-05-19T02:21:59.021Z,7.32
2023-05-19T02:24:26.096Z,6.07
2023-05-19T02:26:53.765Z,5.90
2023-05-19T02:29:21.078Z,5.88
2023-05-19T02:31:48.433Z,5.97
2023-05-19T02:34:15.506Z,6.10
2023-05-19T02:36:43.190Z,6.90
2023-05-19T02:39:11.134Z,6.35
2023-05-19T02:41:41.038Z,6.30
2023-05-19T02:44:07.925Z,6.38
2023-05-19T02:46:34.614Z,6.55
2023-05-19T02:49:01.337Z,6.05
2023-05-19T02:51:28.397Z,5.75
2023-05-19T02:53:55.174Z,5.93
2023-05-19T02:56:21.837Z,6.25
2023-05-19T02:58:48.805Z,5.50
2023-05-19T03:01:16.581Z,6.30
2023-05-19T03:03:43.379Z,5.70
2023-05-19T03:06:10.243Z,5.85
2023-05-19T03:08:36.873Z,6.10
2023-05-19T03:11:03.689Z,5.85
2023-05-19T03:13:30.454Z,6.00
2023-05-19T03:15:58.850Z,5.47
2023-05-19T03:18:28.686Z,6.30
2023-05-19T03:20:55.649Z,6.90
2023-05-19T03:23:22.485Z,6.30
2023-05-19T03:25:49.199Z,6.65
2023-05-19T03:28:15.876Z,6.72
2023-05-19T03:30:42.612Z,7.13
2023-05-19T03:33:09.506Z,7.70
2023-05-19T03:35:36.253Z,6.90
2023-05-19T03:38:03.117Z,9.32
2023-05-19T03:40:29.981Z,8.55
2023-05-19T03:42:56.964Z,8.30
2023-05-19T03:45:23.594Z,7.85
2023-05-19T03:47:50.341Z,8.50
2023-05-19T03:50:17.067Z,8.23
2023-05-19T03:52:46.481Z,8.32
2023-05-19T03:55:14.843Z,8.95
2023-05-19T03:57:41.823Z,7.75
2023-05-19T04:00:11.261Z,7.40
2023-05-19T04:02:38.290Z,7.55
2023-05-19T04:05:05.455Z,7.82
2023-05-19T04:07:32.127Z,8.00
2023-05-19T04:09:58.754Z,7.75
2023-05-19T04:12:28.597Z,7.82
2023-05-19T04:14:55.269Z,8.25
2023-05-19T04:17:23.740Z,9.05
2023-05-19T04:19:51.090Z,8.30
2023-05-19T04:22:17.774Z,8.45
2023-05-19T04:24:44.663Z,8.35
2023-05-19T04:27:12.324Z,8.32
2023-05-19T04:29:40.738Z,8.07
2023-05-19T04:32:08.211Z,8.05
2023-05-19T04:34:35.432Z,7.80
2023-05-19T04:37:07.157Z,8.48
2023-05-19T04:39:33.885Z,8.00
2023-05-19T04:42:00.603Z,7.90
2023-05-19T04:44:27.188Z,8.70
2023-05-19T04:46:54.640Z,8.60
2023-05-19T04:49:23.752Z,8.38
2023-05-19T04:51:54.894Z,8.23
2023-05-19T04:54:22.805Z,8.10
2023-05-19T04:56:49.416Z,10.80
2023-05-19T04:59:16.062Z,7.82
2023-05-19T05:01:43.215Z,7.60
2023-05-19T05:04:10.020Z,7.50
2023-05-19T05:06:38.501Z,7.72
2023-05-19T05:09:05.443Z,7.30
2023-05-19T05:11:32.375Z,7.45
2023-05-19T05:13:59.301Z,7.68
2023-05-19T05:16:26.591Z,7.95
2023-05-19T05:18:53.655Z,7.63
2023-05-19T05:21:20.660Z,7.35
2023-05-19T05:23:47.741Z,7.45
2023-05-19T05:26:23.322Z,7.30
2023-05-19T05:28:50.393Z,8.25
2023-05-19T05:31:17.078Z,7.32
2023-05-19T05:33:44.009Z,7.20
2023-05-19T05:36:10.886Z,7.00
2023-05-19T05:38:37.518Z,7.70
2023-05-19T05:41:04.259Z,7.65
2023-05-19T05:43:31.078Z,7.57
2023-05-19T05:45:58.015Z,6.63
2023-05-19T05:48:25.075Z,7.57
2023-05-19T05:50:52.867Z,6.60
2023-05-19T05:53:20.675Z,7.47
2023-05-19T05:55:47.937Z,6.78
2023-05-19T05:58:15.860Z,7.18
2023-05-19T06:00:43.842Z,7.20
2023-05-19T06:03:11.360Z,6.97
2023-05-19T06:05:38.730Z,7.35
2023-05-19T06:08:06.007Z,7.07
2023-05-19T06:10:33.344Z,7.72
2023-05-19T06:13:00.462Z,7.15
2023-05-19T06:15:28.990Z,6.75
2023-05-19T06:17:56.040Z,6.78
2023-05-19T06:20:23.000Z,7.22
2023-05-19T06:22:49.851Z,6.80
2023-05-19T06:25:16.884Z,7.18
2023-05-19T06:27:43.780Z,6.80
2023-05-19T06:30:10.992Z,6.97
2023-05-19T06:32:37.769Z,7.30
2023-05-19T06:35:04.941Z,7.32
2023-05-19T06:37:31.536Z,6.45
2023-05-19T06:39:58.176Z,6.93
2023-05-19T06:42:26.010Z,6.75
2023-05-19T06:44:53.310Z,7.18
2023-05-19T06:47:20.060Z,6.30
2023-05-19T06:49:50.692Z,6.68
2023-05-19T06:52:17.599Z,6.57
2023-05-19T06:54:44.350Z,6.45
2023-05-19T06:57:11.149Z,7.18
2023-05-19T06:59:40.484Z,6.95
2023-05-19T07:02:08.651Z,6.90
2023-05-19T07:04:36.495Z,6.80
2023-05-19T07:07:03.273Z,6.63
2023-05-19T07:09:29.899Z,6.82
2023-05-19T07:11:56.905Z,6.68
2023-05-19T07:14:23.556Z,6.90
2023-05-19T07:16:50.209Z,7.03
2023-05-19T07:19:19.391Z,7.18
2023-05-19T07:21:46.974Z,7.60
2023-05-19T07:24:13.627Z,7.35
2023-05-19T07:26:40.924Z,7.55
2023-05-19T07:29:07.623Z,7.93
2023-05-19T07:31:34.502Z,7.78
2023-05-19T07:34:01.393Z,7.28
2023-05-19T07:36:28.026Z,6.85
2023-05-19T07:38:54.778Z,7.18
2023-05-19T07:41:21.849Z,7.57
2023-05-19T07:43:49.239Z,7.63
2023-05-19T07:46:16.001Z,7.13
2023-05-19T07:48:42.880Z,7.97
2023-05-19T07:51:12.737Z,7.57
2023-05-19T07:53:39.651Z,7.95
2023-05-19T07:56:06.613Z,7.80
2023-05-19T07:58:33.271Z,7.32
2023-05-19T08:01:00.717Z,8.02
2023-05-19T08:03:28.183Z,7.40
2023-05-19T08:05:55.065Z,7.43
2023-05-19T08:08:22.012Z,8.10
2023-05-19T08:10:48.890Z,7.30
2023-05-19T08:13:15.599Z,7.53
2023-05-19T08:15:42.910Z,7.72
2023-05-19T08:18:09.953Z,7.40
2023-05-19T08:20:36.765Z,7.15
2023-05-19T08:23:03.501Z,6.78
2023-05-19T08:25:30.107Z,7.10
2023-05-19T08:27:56.744Z,6.78
2023-05-19T08:30:23.953Z,6.95
2023-05-19T08:32:50.697Z,6.30
2023-05-19T08:35:17.593Z,6.47
2023-05-19T08:37:44.239Z,6.28
2023-05-19T08:40:17.140Z,7.13
2023-05-19T08:42:47.493Z,6.55
2023-05-19T08:45:14.571Z,6.88
2023-05-19T08:47:46.467Z,6.28
2023-05-19T08:50:29.298Z,6.45
2023-05-19T08:53:02.436Z,6.40
2023-05-19T08:55:36.716Z,6.30
2023-05-19T08:58:04.785Z,6.57
2023-05-19T09:00:33.096Z,6.13
2023-05-19T09:03:17.700Z,6.45
2023-05-19T09:05:46.783Z,6.22
2023-05-19T09:08:13.832Z,6.47
2023-05-19T09:10:40.705Z,5.70
2023-05-19T09:13:07.420Z,6.45
2023-05-19T09:15:36.912Z,5.63
2023-05-19T09:18:08.009Z,6.07
2023-05-19T09:20:40.262Z,6.40
2023-05-19T09:23:07.932Z,6.40
2023-05-19T09:25:34.919Z,5.78
2023-05-19T09:28:01.949Z,6.00
2023-05-19T09:30:29.130Z,6.47
2023-05-19T09:32:56.071Z,6.40
2023-05-19T09:35:22.913Z,6.82
2023-05-19T09:37:49.630Z,6.50
2023-05-19T09:40:16.542Z,6.63
2023-05-19T09:42:44.314Z,5.95
2023-05-19T09:45:11.492Z,6.15
2023-05-19T09:47:39.761Z,6.18
2023-05-19T09:50:10.066Z,5.55
2023-05-19T09:52:40.801Z,7.35
2023-05-19T09:55:11.718Z,5.70
2023-05-19T09:57:40.269Z,5.57
2023-05-19T10:00:20.264Z,5.60
2023-05-19T10:02:48.170Z,5.35
2023-05-19T10:05:22.014Z,5.22
2023-05-19T10:07:52.943Z,5.22
2023-05-19T10:10:20.848Z,4.90
2023-05-19T10:12:48.436Z,4.25
2023-05-19T10:15:20.673Z,5.43
2023-05-19T10:17:50.617Z,5.22
2023-05-19T10:20:17.900Z,5.20
2023-05-19T10:22:46.530Z,5.47
2023-05-19T10:25:18.695Z,5.38
2023-05-19T10:27:53.211Z,5.30
2023-05-19T10:30:32.964Z,5.38
2023-05-19T10:33:01.851Z,5.93
2023-05-19T10:35:51.177Z,5.32
2023-05-19T10:39:00.221Z,5.13
2023-05-19T10:41:51.019Z,5.57
2023-05-19T10:44:51.883Z,5.25
2023-05-19T10:47:28.110Z,5.57
2023-05-19T10:49:55.785Z,5.38
2023-05-19T10:52:25.943Z,6.43
2023-05-19T10:54:54.659Z,5.32
2023-05-19T10:57:28.531Z,5.63
2023-05-19T10:59:57.496Z,5.55
2023-05-19T11:02:41.494Z,5.38
2023-05-19T11:05:09.429Z,5.18
2023-05-19T11:07:36.513Z,5.15
2023-05-19T11:10:09.866Z,5.13
2023-05-19T11:12:45.615Z,5.05
2023-05-19T11:15:14.208Z,5.28
2023-05-19T11:17:42.558Z,5.80
2023-05-19T11:20:23.370Z,5.72
2023-05-19T11:23:33.463Z,5.63
2023-05-19T11:26:02.592Z,4.95
2023-05-19T11:28:30.746Z,4.90
2023-05-19T11:30:59.168Z,5.63
2023-05-19T11:33:29.249Z,4.97
2023-05-19T11:35:59.906Z,5.45
2023-05-19T11:38:28.532Z,5.40
2023-05-19T11:40:56.538Z,5.00
2023-05-19T11:43:26.781Z,5.30
2023-05-19T11:45:54.997Z,4.93
2023-05-19T11:48:22.527Z,5.05
2023-05-19T11:50:50.139Z,5.25
2023-05-19T11:53:17.209Z,5.22
2023-05-19T11:55:48.098Z,4.97
2023-05-19T11:58:15.327Z,5.18
2023-05-19T12:00:45.990Z,4.82
2023-05-19T12:03:13.358Z,5.63
2023-05-19T12:05:46.022Z,5.03
2023-05-19T12:08:14.005Z,5.68
2023-05-19T12:10:41.075Z,5.05
2023-05-19T12:13:09.844Z,5.43
2023-05-19T12:15:38.134Z,5.50
2023-05-19T12:18:04.972Z,5.63
2023-05-19T12:20:32.720Z,5.70
2023-05-19T12:23:00.873Z,5.55
2023-05-19T12:25:29.269Z,5.30
2023-05-19T12:28:05.107Z,5.95
2023-05-19T12:30:33.978Z,5.82
2023-05-19T12:33:02.362Z,5.40
2023-05-19T12:35:32.167Z,5.40
2023-05-19T12:38:03.650Z,5.63
2023-05-19T12:40:30.696Z,5.80
2023-05-19T12:42:59.302Z,5.68
2023-05-19T12:45:28.176Z,5.78
2023-05-19T12:47:56.271Z,5.60
2023-05-19T12:50:30.189Z,5.93
2023-05-19T12:52:57.470Z,5.88
2023-05-19T12:55:24.626Z,5.80
2023-05-19T12:57:57.936Z,5.60
2023-05-19T13:00:28.409Z,5.45
2023-05-19T13:03:05.029Z,5.40
2023-05-19T13:05:38.409Z,5.28
2023-05-19T13:08:12.928Z,5.13
2023-05-19T13:10:41.204Z,4.60
2023-05-19T13:13:09.144Z,4.90
2023-05-19T13:15:38.864Z,4.10
2023-05-19T13:18:08.810Z,4.40
2023-05-19T13:20:40.695Z,4.10
2023-05-19T13:23:07.823Z,4.47
2023-05-19T13:25:34.605Z,4.60
2023-05-19T13:28:05.424Z,4.93
2023-05-19T13:30:34.150Z,5.20
2023-05-19T13:33:01.314Z,5.22
2023-05-19T13:35:28.160Z,4.88
2023-05-19T13:37:56.860Z,5.00
2023-05-19T13:40:24.376Z,5.07
2023-05-19T13:42:51.092Z,5.10
2023-05-19T13:45:23.820Z,5.28
2023-05-19T13:47:50.435Z,5.60
2023-05-19T13:50:17.186Z,5.03
2023-05-19T13:52:43.886Z,6.05
2023-05-19T13:55:10.630Z,7.82
2023-05-19T13:57:38.245Z,12.95
2023-05-19T14:00:06.101Z,5.22
2023-05-19T14:02:34.037Z,5.30
2023-05-19T14:05:00.829Z,5.35
2023-05-19T14:07:28.342Z,5.07
2023-05-19T14:09:57.201Z,5.05
2023-05-19T14:12:33.910Z,4.82
2023-05-19T14:15:08.006Z,5.00
2023-05-19T14:17:35.830Z,4.93
2023-05-19T14:20:02.632Z,5.00
2023-05-19T14:22:29.422Z,5.38
2023-05-19T14:24:56.245Z,5.95
2023-05-19T14:27:22.914Z,4.82
2023-05-19T14:29:49.668Z,9.02
2023-05-19T14:32:16.671Z,4.63
2023-05-19T14:34:43.372Z,6.75
2023-05-19T14:37:10.045Z,5.30
2023-05-19T14:39:36.740Z,5.30
2023-05-19T14:42:03.553Z,5.40
2023-05-19T14:44:31.910Z,4.60
2023-05-19T14:47:00.682Z,4.60
2023-05-19T14:49:27.308Z,6.03
2023-05-19T14:51:53.998Z,6.63
2023-05-19T14:54:20.663Z,5.05
2023-05-19T14:56:47.371Z,5.45
2023-05-19T14:59:14.282Z,5.50
2023-05-19T15:01:41.125Z,4.90
2023-05-19T15:04:07.822Z,4.10
2023-05-19T15:06:34.664Z,4.32
2023-05-19T15:09:01.376Z,6.05
2023-05-19T15:11:28.029Z,4.03
2023-05-19T15:13:55.142Z,4.93
2023-05-19T15:16:21.856Z,4.80
2023-05-19T15:18:48.571Z,4.88
2023-05-19T15:21:15.404Z,4.57
2023-05-19T15:23:42.034Z,4.90
2023-05-19T15:26:08.828Z,4.93
2023-05-19T15:28:35.695Z,4.32
2023-05-19T15:31:02.412Z,4.72
2023-05-19T15:33:29.111Z,5.00
2023-05-19T15:35:57.267Z,4.55
2023-05-19T15:38:23.895Z,4.50
2023-05-19T15:40:50.618Z,4.60
2023-05-19T15:43:17.615Z,4.38
2023-05-19T15:45:44.213Z,5.05
2023-05-19T15:48:11.523Z,4.40
2023-05-19T15:50:38.406Z,4.75
2023-05-19T15:53:07.747Z,4.97
2023-05-19T15:55:34.485Z,5.25
2023-05-19T15:58:01.243Z,5.03
2023-05-19T16:00:27.849Z,4.78
2023-05-19T16:02:54.583Z,5.28
2023-05-19T16:05:21.354Z,5.05
2023-05-19T16:07:47.985Z,4.90
2023-05-19T16:10:14.755Z,5.85
2023-05-19T16:12:41.510Z,8.25
2023-05-19T16:15:08.693Z,5.13
2023-05-19T16:17:35.398Z,4.93
2023-05-19T16:20:02.054Z,4.95
2023-05-19T16:22:30.213Z,5.10
2023-05-19T16:24:56.836Z,5.15
2023-05-19T16:27:23.801Z,5.22
2023-05-19T16:29:50.543Z,5.18
2023-05-19T16:32:17.171Z,5.22
2023-05-19T16:34:43.856Z,5.75
2023-05-19T16:37:10.501Z,5.53
2023-05-19T16:39:37.336Z,5.25
2023-05-19T16:42:04.851Z,5.70
2023-05-19T16:44:31.704Z,5.35
2023-05-19T16:46:58.392Z,5.13
2023-05-19T16:49:25.169Z,5.30
2023-05-19T16:51:53.112Z,5.50
2023-05-19T16:54:20.872Z,5.47
2023-05-19T16:56:47.638Z,5.55
2023-05-19T16:59:14.262Z,5.45
2023-05-19T17:01:40.942Z,6.05
2023-05-19T17:04:08.200Z,5.78
2023-05-19T17:06:34.975Z,6.72
2023-05-19T17:09:02.105Z,6.10
2023-05-19T17:11:29.019Z,5.78
2023-05-19T17:13:55.774Z,6.00
2023-05-19T17:16:24.026Z,6.10
2023-05-19T17:18:51.220Z,6.03
2023-05-19T17:21:17.917Z,5.78
2023-05-19T17:23:44.719Z,5.78
2023-05-19T17:26:11.552Z,5.82
2023-05-19T17:28:38.213Z,6.82
2023-05-19T17:31:12.574Z,15.77
2023-05-19T17:33:39.688Z,6.63
2023-05-19T17:36:07.278Z,6.90
2023-05-19T17:38:34.436Z,5.97
2023-05-19T17:41:02.550Z,6.00
2023-05-19T17:43:29.944Z,5.72
2023-05-19T17:45:58.148Z,5.75
2023-05-19T17:48:25.945Z,6.25
2023-05-19T17:50:52.614Z,5.97
2023-05-19T17:53:19.810Z,6.97
2023-05-19T17:55:51.504Z,6.93
2023-05-19T17:58:19.224Z,7.18
2023-05-19T18:00:46.411Z,6.85
2023-05-19T18:03:13.886Z,7.15
2023-05-19T18:05:43.280Z,7.20
2023-05-19T18:08:10.866Z,6.65
2023-05-19T18:10:39.738Z,7.65
2023-05-19T18:13:08.012Z,6.72
2023-05-19T18:15:35.554Z,6.70
2023-05-19T18:18:05.519Z,7.22
2023-05-19T18:20:34.061Z,6.95
2023-05-19T18:23:01.497Z,7.25
2023-05-19T18:25:28.154Z,6.57
2023-05-19T18:27:55.833Z,7.03
2023-05-19T18:30:28.034Z,6.90
2023-05-19T18:32:55.027Z,6.90
2023-05-19T18:35:23.578Z,6.78
2023-05-19T18:37:50.771Z,6.93
2023-05-19T18:40:17.599Z,6.57
2023-05-19T18:42:44.541Z,6.72
2023-05-19T18:45:11.634Z,6.65
2023-05-19T18:47:38.412Z,6.90
2023-05-19T18:50:05.767Z,6.55
2023-05-19T18:52:32.578Z,6.53
2023-05-19T18:55:01.163Z,6.47
2023-05-19T18:57:27.826Z,7.30
2023-05-19T18:59:54.914Z,6.78
2023-05-19T19:02:21.550Z,6.63
2023-05-19T19:04:48.367Z,6.22
2023-05-19T19:07:15.303Z,6.78
2023-05-19T19:09:43.714Z,6.90
2023-05-19T19:12:10.838Z,7.57
2023-05-19T19:14:37.639Z,8.85
2023-05-19T19:17:04.496Z,7.15
2023-05-19T19:19:31.315Z,8.52
2023-05-19T19:21:58.095Z,7.88
2023-05-19T19:24:26.483Z,8.30
2023-05-19T19:26:53.082Z,8.20
2023-05-19T19:29:21.843Z,8.07
2023-05-19T19:31:48.770Z,7.88
2023-05-19T19:34:15.703Z,7.38
2023-05-19T19:36:42.678Z,7.15
2023-05-19T19:39:09.465Z,6.70
2023-05-19T19:41:36.675Z,9.25
2023-05-19T19:44:03.630Z,7.22
2023-05-19T19:46:30.396Z,8.00
2023-05-19T19:49:00.932Z,7.53
2023-05-19T19:51:28.818Z,7.70
2023-05-19T19:53:55.678Z,6.82
2023-05-19T19:56:24.821Z,6.47
2023-05-19T19:58:51.803Z,7.72
2023-05-19T20:01:20.495Z,7.00
2023-05-19T20:03:48.066Z,6.88
2023-05-19T20:06:15.420Z,7.30
2023-05-19T20:08:42.048Z,8.27
2023-05-19T20:11:08.933Z,7.75
2023-05-19T20:13:35.719Z,8.18
2023-05-19T20:16:02.596Z,8.30
2023-05-19T20:18:29.965Z,7.70
2023-05-19T20:20:57.401Z,7.55
2023-05-19T20:23:24.064Z,7.88
2023-05-19T20:26:10.354Z,8.57
2023-05-19T20:28:37.503Z,7.30
2023-05-19T20:31:06.350Z,8.10
2023-05-19T20:33:33.079Z,8.70
2023-05-19T20:36:00.007Z,8.02
2023-05-19T20:38:26.637Z,7.70
2023-05-19T20:40:54.314Z,8.43
2023-05-19T20:43:21.457Z,8.05
2023-05-19T20:45:48.166Z,9.02
2023-05-19T20:48:16.027Z,8.80
2023-05-19T20:50:43.020Z,8.38
2023-05-19T20:53:09.660Z,13.93
2023-05-19T20:55:36.591Z,8.80
2023-05-19T20:58:03.272Z,8.73
2023-05-19T21:00:30.783Z,9.02
2023-05-19T21:02:57.897Z,9.30
2023-05-19T21:05:25.055Z,10.50
2023-05-19T21:07:51.817Z,14.07
2023-05-19T21:10:22.183Z,12.70
2023-05-19T21:12:49.311Z,13.90
2023-05-19T21:15:16.271Z,14.35
2023-05-19T21:17:42.944Z,12.95
2023-05-19T21:20:10.498Z,11.13
2023-05-19T21:22:37.160Z,10.30
2023-05-19T21:25:04.123Z,10.98
2023-05-19T21:27:32.919Z,11.32
2023-05-19T21:30:00.087Z,8.88
2023-05-19T21:32:27.413Z,8.35
2023-05-19T21:34:54.120Z,9.02
2023-05-19T21:37:21.744Z,8.50
2023-05-19T21:39:48.901Z,8.05
2023-05-19T21:42:15.649Z,8.13
2023-05-19T21:44:42.451Z,8.90
2023-05-19T21:47:09.079Z,8.07
2023-05-19T21:49:36.118Z,7.90
2023-05-19T21:52:02.768Z,8.70
2023-05-19T21:54:29.427Z,8.40
2023-05-19T21:56:56.344Z,7.78
2023-05-19T21:59:24.832Z,8.55
2023-05-19T22:01:51.575Z,8.20
2023-05-19T22:04:18.755Z,7.50
2023-05-19T22:06:45.777Z,7.68
2023-05-19T22:09:12.940Z,8.93
2023-05-19T22:11:39.924Z,8.18
2023-05-19T22:14:07.076Z,8.18
2023-05-19T22:16:34.051Z,8.25
2023-05-19T22:19:00.798Z,8.65
2023-05-19T22:21:27.513Z,8.10
2023-05-19T22:23:54.184Z,8.43
2023-05-19T22:26:21.786Z,7.72
2023-05-19T22:28:49.376Z,8.55
2023-05-19T22:31:16.703Z,8.38
2023-05-19T22:33:43.457Z,8.30
2023-05-19T22:36:11.088Z,9.45
2023-05-19T22:38:37.842Z,9.82
2023-05-19T22:41:04.730Z,10.32
2023-05-19T22:43:31.503Z,10.50
2023-05-19T22:45:58.199Z,11.32
2023-05-19T22:48:24.924Z,9.90
2023-05-19T22:50:51.647Z,9.88
2023-05-19T22:53:18.269Z,10.70
2023-05-19T22:55:45.091Z,10.57
2023-05-19T22:58:11.742Z,10.88
2023-05-19T23:00:38.328Z,10.20
2023-05-19T23:03:05.064Z,10.95
2023-05-19T23:05:32.253Z,10.13
2023-05-19T23:07:59.059Z,10.73
2023-05-19T23:10:25.884Z,10.35
2023-05-19T23:12:52.690Z,9.65
2023-05-19T23:15:24.004Z,10.98
2023-05-19T23:17:50.679Z,11.90
2023-05-19T23:20:17.701Z,11.70
2023-05-19T23:22:44.340Z,11.13
2023-05-19T23:25:11.488Z,10.23
2023-05-19T23:27:38.230Z,9.98
2023-05-19T23:30:05.423Z,9.18
2023-05-19T23:32:32.372Z,9.98
2023-05-19T23:35:17.516Z,9.52
2023-05-19T23:37:44.319Z,9.27
2023-05-19T23:40:11.590Z,9.73
2023-05-19T23:42:38.475Z,9.85
2023-05-19T23:45:06.021Z,10.93
2023-05-19T23:47:32.664Z,10.35
2023-05-19T23:49:59.336Z,11.07
2023-05-19T23:52:26.152Z,10.05
2023-05-19T23:54:52.832Z,10.23
2023-05-19T23:57:19.465Z,9.95
2023-05-19T23:59:46.558Z,10.10
